Brinkley, Kentucky
Current Conditions -  °F | °C
As of 8:15 AM on Saturday 25 Oct 2014 (Local Time) from KPBX Reporting Station
Haze Haze  
Wind Chill: 36°   Ceiling: 100
Heat Index: 40°   Visibility: 2mi
Dew Point: 39°   Wind: 5mph
Humidity: 99%   Direction: 170°S
Pressure: 30.07"   Gusts: NA
Location:  37.3236°N, 82.9494°W
Report Text: KPBX 251215Z AUTO 17004KT 2SM BR BKN001 04/04 A3007 RMK AO2 T00430041
Loading
Personal Weather Stations






























Interactive Weather Map
Tropical Storm Tracking
New forecast layout! Learn more

10-Day Weather Forecast

Advertisements
Track Severe Weather on mobile